Aeroporto :
LOGIN :

Iscrizione | Disclaimer

   EN    FR    IT 

 










Sommario :    VFR   VFR Marginale   IFR   IFR Intensivo   IFR Molto Intensivo
Visibilità : 
Base nubi : 
>= 8 km
>= 3000ft
5 / 8 km
1000 / 3000 ft
1500m / 5 km
500 / 1000 ft
800 / 1500m
200 / 500 ft
< 800m
< 200 ft
Simboli :   Temporali  Nebbia  Neve Forte  Precipitazioni Forti  Vento > 20 kt
SIGMETs :   Varie  Temporali  Ghiacco  Turbolenza  Onda orograficha  Ceneri Vulcaniche






- Altitudine del aeroporto : 135 ft
- Codice IATA : EDI


EGPH - Edinburgh

ULTIMO METAR :
  • 141250Z 23021KT 9999 -RA SCT020 05/03 Q0976

METARs OBSOLETI :
  • 141220Z 24017KT 9999 FEW020 05/03 Q0976
  • 141150Z 24017KT 9999 FEW017 04/03 Q0976
  • 141120Z 23012KT 9999 FEW017 03/03 Q0976
  • 141050Z 23013KT 9999 FEW011 SCT030 03/02 Q0976
  • 141020Z 24011KT 9999 -RA FEW011 SCT032 03/02 Q0975

TAF TAF EGPH
Valido dal 14 a 12 ore il 15 a 12 ore UTC


141103Z 1412/1512 24012KT 9999 FEW012 SCT025
TEMPO 1412/1423 24018G28KT BKN012
PROB30
TEMPO 1412/1421 7000 RA SHRA BKN008
PROB30
TEMPO 1500/1507 5000 SHRASN BKN005
ATIS : +44 131 339 2823



MetMap, La meteo Aeronautica in un colpo d'occhio ! - Copyright ORBIFLY Dicembre 2007 - Disclaimer

ORBIFLY MET'MAP TEAM :

Programmazione e sviluppo : Alexandra Zaïnal
Concezione : Baudouin d'Aumeries
Aiuto per la programmazione : Marc-Olivier Méhu
Supporto tecnico e logistico : Manuel Goepfert
Aiuto per la traduzione : Arnaldo La Scala

Contatto : metmap@orbifly.com




FONTI E CREDITI :

   NOAA